sensor_id;sensor_type;location;lat;lon;timestamp;P1;durP1;ratioP1;P2;durP2;ratioP2
13250;SDS011;6692;50.710;7.180;2023-11-21T00:01:17;9.73;;;8.30;;
13250;SDS011;6692;50.710;7.180;2023-11-21T00:03:17;10.30;;;8.17;;
13250;SDS011;6692;50.710;7.180;2023-11-21T00:05:19;8.73;;;7.80;;
13250;SDS011;6692;50.710;7.180;2023-11-21T00:07:20;8.63;;;7.60;;
13250;SDS011;6692;50.710;7.180;2023-11-21T00:09:20;7.90;;;7.10;;
13250;SDS011;6692;50.710;7.180;2023-11-21T00:11:21;8.00;;;7.20;;
13250;SDS011;6692;50.710;7.180;2023-11-21T00:13:22;8.67;;;6.90;;
13250;SDS011;6692;50.710;7.180;2023-11-21T00:15:23;7.93;;;7.13;;
13250;SDS011;6692;50.710;7.180;2023-11-21T00:17:24;7.73;;;6.83;;
13250;SDS011;6692;50.710;7.180;2023-11-21T00:19:24;7.90;;;7.10;;
13250;SDS011;6692;50.710;7.180;2023-11-21T00:21:25;6.47;;;5.73;;
13250;SDS011;6692;50.710;7.180;2023-11-21T00:23:26;6.87;;;6.10;;
13250;SDS011;6692;50.710;7.180;2023-11-21T00:25:27;7.63;;;5.73;;
13250;SDS011;6692;50.710;7.180;2023-11-21T00:27:27;8.40;;;5.90;;
13250;SDS011;6692;50.710;7.180;2023-11-21T00:29:29;5.80;;;5.03;;
13250;SDS011;6692;50.710;7.180;2023-11-21T00:31:31;7.60;;;6.87;;
13250;SDS011;6692;50.710;7.180;2023-11-21T00:33:31;6.73;;;5.97;;
13250;SDS011;6692;50.710;7.180;2023-11-21T00:35:33;6.27;;;5.67;;
13250;SDS011;6692;50.710;7.180;2023-11-21T00:37:34;6.03;;;5.43;;
13250;SDS011;6692;50.710;7.180;2023-11-21T00:39:34;6.57;;;5.97;;
13250;SDS011;6692;50.710;7.180;2023-11-21T00:41:36;6.77;;;6.07;;
13250;SDS011;6692;50.710;7.180;2023-11-21T00:43:37;6.20;;;5.60;;
13250;SDS011;6692;50.710;7.180;2023-11-21T00:45:38;6.07;;;5.40;;
13250;SDS011;6692;50.710;7.180;2023-11-21T00:47:39;5.80;;;5.20;;
13250;SDS011;6692;50.710;7.180;2023-11-21T00:49:41;5.70;;;5.20;;
13250;SDS011;6692;50.710;7.180;2023-11-21T00:51:41;6.23;;;5.63;;
13250;SDS011;6692;50.710;7.180;2023-11-21T00:53:42;5.87;;;5.30;;
13250;SDS011;6692;50.710;7.180;2023-11-21T00:55:44;5.13;;;4.63;;
13250;SDS011;6692;50.710;7.180;2023-11-21T00:57:44;5.30;;;4.73;;
13250;SDS011;6692;50.710;7.180;2023-11-21T00:59:45;5.37;;;4.87;;
13250;SDS011;6692;50.710;7.180;2023-11-21T01:01:46;5.33;;;4.57;;
13250;SDS011;6692;50.710;7.180;2023-11-21T01:03:48;4.90;;;4.43;;
13250;SDS011;6692;50.710;7.180;2023-11-21T01:05:48;6.47;;;5.03;;
13250;SDS011;6692;50.710;7.180;2023-11-21T01:07:49;5.77;;;5.10;;
13250;SDS011;6692;50.710;7.180;2023-11-21T01:09:50;5.57;;;5.00;;
13250;SDS011;6692;50.710;7.180;2023-11-21T01:11:51;6.13;;;5.33;;
13250;SDS011;6692;50.710;7.180;2023-11-21T01:13:52;5.80;;;5.03;;
13250;SDS011;6692;50.710;7.180;2023-11-21T01:15:53;5.23;;;4.73;;
13250;SDS011;6692;50.710;7.180;2023-11-21T01:17:53;5.43;;;4.87;;
13250;SDS011;6692;50.710;7.180;2023-11-21T01:19:55;5.10;;;4.60;;
13250;SDS011;6692;50.710;7.180;2023-11-21T01:21:56;6.07;;;5.47;;
13250;SDS011;6692;50.710;7.180;2023-11-21T01:23:56;5.70;;;5.10;;
13250;SDS011;6692;50.710;7.180;2023-11-21T01:25:57;6.07;;;5.33;;
13250;SDS011;6692;50.710;7.180;2023-11-21T01:27:58;7.13;;;5.57;;
13250;SDS011;6692;50.710;7.180;2023-11-21T01:29:59;6.37;;;5.23;;
13250;SDS011;6692;50.710;7.180;2023-11-21T01:32:00;6.60;;;5.63;;
13250;SDS011;6692;50.710;7.180;2023-11-21T01:34:01;6.67;;;5.97;;
13250;SDS011;6692;50.710;7.180;2023-11-21T01:36:01;5.53;;;5.00;;
13250;SDS011;6692;50.710;7.180;2023-11-21T01:38:02;5.40;;;4.90;;
13250;SDS011;6692;50.710;7.180;2023-11-21T01:40:03;5.90;;;5.30;;
13250;SDS011;6692;50.710;7.180;2023-11-21T01:42:05;5.97;;;5.37;;
13250;SDS011;6692;50.710;7.180;2023-11-21T01:44:06;5.47;;;4.97;;
13250;SDS011;6692;50.710;7.180;2023-11-21T01:46:08;5.37;;;4.87;;
13250;SDS011;6692;50.710;7.180;2023-11-21T01:48:09;5.63;;;5.10;;
13250;SDS011;6692;50.710;7.180;2023-11-21T01:50:11;5.13;;;4.63;;
13250;SDS011;6692;50.710;7.180;2023-11-21T01:52:11;5.57;;;4.97;;
13250;SDS011;6692;50.710;7.180;2023-11-21T01:54:11;5.97;;;5.37;;
13250;SDS011;6692;50.710;7.180;2023-11-21T01:56:12;6.07;;;5.37;;
13250;SDS011;6692;50.710;7.180;2023-11-21T01:58:13;5.73;;;5.13;;
13250;SDS011;6692;50.710;7.180;2023-11-21T02:00:14;5.57;;;4.97;;
13250;SDS011;6692;50.710;7.180;2023-11-21T02:02:15;6.03;;;5.43;;
13250;SDS011;6692;50.710;7.180;2023-11-21T02:04:17;5.60;;;5.00;;
13250;SDS011;6692;50.710;7.180;2023-11-21T02:06:18;5.80;;;5.20;;
13250;SDS011;6692;50.710;7.180;2023-11-21T02:08:19;7.47;;;6.67;;
13250;SDS011;6692;50.710;7.180;2023-11-21T02:10:19;7.07;;;6.20;;
13250;SDS011;6692;50.710;7.180;2023-11-21T02:12:21;7.47;;;6.33;;
13250;SDS011;6692;50.710;7.180;2023-11-21T02:14:22;6.90;;;5.90;;
13250;SDS011;6692;50.710;7.180;2023-11-21T02:16:23;9.43;;;7.13;;
13250;SDS011;6692;50.710;7.180;2023-11-21T02:18:23;7.60;;;6.50;;
13250;SDS011;6692;50.710;7.180;2023-11-21T02:20:24;6.83;;;6.13;;
13250;SDS011;6692;50.710;7.180;2023-11-21T02:22:28;7.87;;;7.00;;
13250;SDS011;6692;50.710;7.180;2023-11-21T02:24:28;9.30;;;7.17;;
13250;SDS011;6692;50.710;7.180;2023-11-21T02:26:29;7.90;;;6.97;;
13250;SDS011;6692;50.710;7.180;2023-11-21T02:28:30;8.50;;;7.53;;
13250;SDS011;6692;50.710;7.180;2023-11-21T02:30:31;10.13;;;7.97;;
13250;SDS011;6692;50.710;7.180;2023-11-21T02:32:33;10.63;;;7.17;;
13250;SDS011;6692;50.710;7.180;2023-11-21T02:34:33;9.07;;;8.17;;
13250;SDS011;6692;50.710;7.180;2023-11-21T02:36:34;8.10;;;7.30;;
13250;SDS011;6692;50.710;7.180;2023-11-21T02:38:36;10.87;;;8.27;;
13250;SDS011;6692;50.710;7.180;2023-11-21T02:40:36;9.10;;;8.10;;
13250;SDS011;6692;50.710;7.180;2023-11-21T02:42:38;7.83;;;6.87;;
13250;SDS011;6692;50.710;7.180;2023-11-21T02:44:38;9.47;;;7.80;;
13250;SDS011;6692;50.710;7.180;2023-11-21T02:46:39;8.87;;;7.53;;
13250;SDS011;6692;50.710;7.180;2023-11-21T02:48:40;7.63;;;6.83;;
13250;SDS011;6692;50.710;7.180;2023-11-21T02:50:41;9.73;;;7.67;;
13250;SDS011;6692;50.710;7.180;2023-11-21T02:52:42;8.87;;;7.27;;
13250;SDS011;6692;50.710;7.180;2023-11-21T02:54:43;8.60;;;7.43;;
13250;SDS011;6692;50.710;7.180;2023-11-21T02:56:43;8.40;;;7.43;;
13250;SDS011;6692;50.710;7.180;2023-11-21T02:58:44;8.87;;;7.80;;
13250;SDS011;6692;50.710;7.180;2023-11-21T03:00:45;8.13;;;7.33;;
13250;SDS011;6692;50.710;7.180;2023-11-21T03:02:46;8.33;;;7.30;;
13250;SDS011;6692;50.710;7.180;2023-11-21T03:04:47;10.13;;;7.43;;
13250;SDS011;6692;50.710;7.180;2023-11-21T03:06:49;9.40;;;7.53;;
13250;SDS011;6692;50.710;7.180;2023-11-21T03:08:49;8.37;;;7.47;;
13250;SDS011;6692;50.710;7.180;2023-11-21T03:10:50;8.73;;;7.20;;
13250;SDS011;6692;50.710;7.180;2023-11-21T03:12:51;7.83;;;7.03;;
13250;SDS011;6692;50.710;7.180;2023-11-21T03:14:53;8.47;;;7.50;;
13250;SDS011;6692;50.710;7.180;2023-11-21T03:16:54;7.93;;;7.10;;
13250;SDS011;6692;50.710;7.180;2023-11-21T03:18:55;7.43;;;6.63;;
13250;SDS011;6692;50.710;7.180;2023-11-21T03:20:56;6.63;;;5.93;;
13250;SDS011;6692;50.710;7.180;2023-11-21T03:22:57;6.43;;;5.73;;
13250;SDS011;6692;50.710;7.180;2023-11-21T03:24:58;7.90;;;7.10;;
13250;SDS011;6692;50.710;7.180;2023-11-21T03:26:58;9.73;;;7.20;;
13250;SDS011;6692;50.710;7.180;2023-11-21T03:29:00;7.57;;;6.57;;
13250;SDS011;6692;50.710;7.180;2023-11-21T03:31:01;11.00;;;8.50;;
13250;SDS011;6692;50.710;7.180;2023-11-21T03:33:01;9.87;;;8.17;;
13250;SDS011;6692;50.710;7.180;2023-11-21T03:35:03;9.63;;;7.70;;
13250;SDS011;6692;50.710;7.180;2023-11-21T03:37:04;9.60;;;8.67;;
13250;SDS011;6692;50.710;7.180;2023-11-21T03:39:05;9.70;;;8.27;;
13250;SDS011;6692;50.710;7.180;2023-11-21T03:41:06;8.97;;;7.87;;
13250;SDS011;6692;50.710;7.180;2023-11-21T03:43:07;8.57;;;7.23;;
13250;SDS011;6692;50.710;7.180;2023-11-21T03:45:08;9.87;;;7.47;;
13250;SDS011;6692;50.710;7.180;2023-11-21T03:47:09;8.70;;;7.73;;
13250;SDS011;6692;50.710;7.180;2023-11-21T03:49:10;8.90;;;7.47;;
13250;SDS011;6692;50.710;7.180;2023-11-21T03:51:10;9.03;;;7.20;;
13250;SDS011;6692;50.710;7.180;2023-11-21T03:53:11;7.73;;;6.93;;
13250;SDS011;6692;50.710;7.180;2023-11-21T03:55:12;8.03;;;6.70;;
13250;SDS011;6692;50.710;7.180;2023-11-21T03:57:13;6.97;;;6.27;;
13250;SDS011;6692;50.710;7.180;2023-11-21T03:59:14;7.20;;;6.43;;
13250;SDS011;6692;50.710;7.180;2023-11-21T04:01:19;6.23;;;5.63;;
13250;SDS011;6692;50.710;7.180;2023-11-21T04:03:23;6.53;;;5.67;;
13250;SDS011;6692;50.710;7.180;2023-11-21T04:05:24;5.73;;;5.23;;
13250;SDS011;6692;50.710;7.180;2023-11-21T04:07:24;6.17;;;5.63;;
13250;SDS011;6692;50.710;7.180;2023-11-21T04:09:25;5.80;;;5.27;;
13250;SDS011;6692;50.710;7.180;2023-11-21T04:11:26;5.57;;;5.07;;
13250;SDS011;6692;50.710;7.180;2023-11-21T04:13:27;6.07;;;5.47;;
13250;SDS011;6692;50.710;7.180;2023-11-21T04:15:27;6.20;;;5.60;;
13250;SDS011;6692;50.710;7.180;2023-11-21T04:17:28;6.10;;;5.50;;
13250;SDS011;6692;50.710;7.180;2023-11-21T04:19:30;6.50;;;5.90;;
13250;SDS011;6692;50.710;7.180;2023-11-21T04:21:30;8.10;;;6.60;;
13250;SDS011;6692;50.710;7.180;2023-11-21T04:23:31;9.43;;;7.87;;
13250;SDS011;6692;50.710;7.180;2023-11-21T04:25:32;13.77;;;10.77;;
13250;SDS011;6692;50.710;7.180;2023-11-21T04:27:33;14.47;;;9.63;;
13250;SDS011;6692;50.710;7.180;2023-11-21T04:29:33;15.97;;;12.60;;
13250;SDS011;6692;50.710;7.180;2023-11-21T04:31:34;14.93;;;11.33;;
13250;SDS011;6692;50.710;7.180;2023-11-21T04:33:36;14.27;;;11.73;;
13250;SDS011;6692;50.710;7.180;2023-11-21T04:35:37;19.67;;;14.10;;
13250;SDS011;6692;50.710;7.180;2023-11-21T04:37:38;19.83;;;14.47;;
13250;SDS011;6692;50.710;7.180;2023-11-21T04:39:39;16.60;;;12.67;;
13250;SDS011;6692;50.710;7.180;2023-11-21T04:41:40;16.93;;;13.70;;
13250;SDS011;6692;50.710;7.180;2023-11-21T04:43:40;18.30;;;13.73;;
13250;SDS011;6692;50.710;7.180;2023-11-21T04:45:41;21.00;;;15.77;;
13250;SDS011;6692;50.710;7.180;2023-11-21T04:47:42;22.23;;;15.57;;
13250;SDS011;6692;50.710;7.180;2023-11-21T04:49:43;23.27;;;16.50;;
13250;SDS011;6692;50.710;7.180;2023-11-21T04:51:44;22.10;;;15.20;;
13250;SDS011;6692;50.710;7.180;2023-11-21T04:53:44;21.50;;;17.53;;
13250;SDS011;6692;50.710;7.180;2023-11-21T04:55:45;19.73;;;15.33;;
13250;SDS011;6692;50.710;7.180;2023-11-21T04:57:46;25.57;;;17.47;;
13250;SDS011;6692;50.710;7.180;2023-11-21T04:59:48;23.43;;;17.03;;
13250;SDS011;6692;50.710;7.180;2023-11-21T05:01:48;24.40;;;17.90;;
13250;SDS011;6692;50.710;7.180;2023-11-21T05:03:48;20.87;;;15.53;;
13250;SDS011;6692;50.710;7.180;2023-11-21T05:05:49;17.90;;;14.27;;
13250;SDS011;6692;50.710;7.180;2023-11-21T05:07:50;23.20;;;17.00;;
13250;SDS011;6692;50.710;7.180;2023-11-21T05:09:51;19.30;;;14.97;;
13250;SDS011;6692;50.710;7.180;2023-11-21T05:11:51;22.13;;;16.33;;
13250;SDS011;6692;50.710;7.180;2023-11-21T05:13:52;22.40;;;16.20;;
13250;SDS011;6692;50.710;7.180;2023-11-21T05:15:54;20.80;;;15.50;;
13250;SDS011;6692;50.710;7.180;2023-11-21T05:17:55;17.83;;;14.27;;
13250;SDS011;6692;50.710;7.180;2023-11-21T05:19:56;15.80;;;13.07;;
13250;SDS011;6692;50.710;7.180;2023-11-21T05:21:56;15.20;;;12.63;;
13250;SDS011;6692;50.710;7.180;2023-11-21T05:23:58;12.37;;;10.83;;
13250;SDS011;6692;50.710;7.180;2023-11-21T05:25:59;14.87;;;10.67;;
13250;SDS011;6692;50.710;7.180;2023-11-21T05:28:00;14.40;;;11.33;;
13250;SDS011;6692;50.710;7.180;2023-11-21T05:30:02;13.87;;;11.67;;
13250;SDS011;6692;50.710;7.180;2023-11-21T05:32:03;12.20;;;10.13;;
13250;SDS011;6692;50.710;7.180;2023-11-21T05:34:04;13.47;;;11.00;;
13250;SDS011;6692;50.710;7.180;2023-11-21T05:36:05;13.67;;;11.13;;
13250;SDS011;6692;50.710;7.180;2023-11-21T05:38:07;12.87;;;10.83;;
13250;SDS011;6692;50.710;7.180;2023-11-21T05:40:08;13.40;;;11.17;;
13250;SDS011;6692;50.710;7.180;2023-11-21T05:42:10;13.23;;;10.93;;
13250;SDS011;6692;50.710;7.180;2023-11-21T05:44:10;14.27;;;11.10;;
13250;SDS011;6692;50.710;7.180;2023-11-21T05:46:11;14.20;;;11.40;;
13250;SDS011;6692;50.710;7.180;2023-11-21T05:48:12;15.63;;;12.70;;
13250;SDS011;6692;50.710;7.180;2023-11-21T05:50:14;15.57;;;12.30;;
13250;SDS011;6692;50.710;7.180;2023-11-21T05:52:15;14.00;;;11.17;;
13250;SDS011;6692;50.710;7.180;2023-11-21T05:54:16;13.37;;;10.93;;
13250;SDS011;6692;50.710;7.180;2023-11-21T05:56:17;15.27;;;11.70;;
13250;SDS011;6692;50.710;7.180;2023-11-21T05:58:17;14.97;;;10.77;;
13250;SDS011;6692;50.710;7.180;2023-11-21T06:00:19;15.10;;;11.63;;
13250;SDS011;6692;50.710;7.180;2023-11-21T06:02:21;15.13;;;11.30;;
13250;SDS011;6692;50.710;7.180;2023-11-21T06:04:21;13.63;;;10.43;;
13250;SDS011;6692;50.710;7.180;2023-11-21T06:06:22;14.10;;;11.43;;
13250;SDS011;6692;50.710;7.180;2023-11-21T06:08:23;12.23;;;9.57;;
13250;SDS011;6692;50.710;7.180;2023-11-21T06:10:24;13.63;;;10.73;;
13250;SDS011;6692;50.710;7.180;2023-11-21T06:12:25;13.57;;;10.00;;
13250;SDS011;6692;50.710;7.180;2023-11-21T06:14:25;13.23;;;10.17;;
13250;SDS011;6692;50.710;7.180;2023-11-21T06:16:26;15.67;;;12.20;;
13250;SDS011;6692;50.710;7.180;2023-11-21T06:18:28;14.80;;;11.50;;
13250;SDS011;6692;50.710;7.180;2023-11-21T06:20:29;16.57;;;12.60;;
13250;SDS011;6692;50.710;7.180;2023-11-21T06:22:29;16.47;;;11.80;;
13250;SDS011;6692;50.710;7.180;2023-11-21T06:24:30;17.70;;;12.00;;
13250;SDS011;6692;50.710;7.180;2023-11-21T06:26:31;18.83;;;12.40;;
13250;SDS011;6692;50.710;7.180;2023-11-21T06:28:32;16.70;;;12.07;;
13250;SDS011;6692;50.710;7.180;2023-11-21T06:30:33;17.47;;;12.23;;
13250;SDS011;6692;50.710;7.180;2023-11-21T06:32:34;15.73;;;11.43;;
13250;SDS011;6692;50.710;7.180;2023-11-21T06:34:35;16.33;;;11.23;;
13250;SDS011;6692;50.710;7.180;2023-11-21T06:36:36;15.07;;;10.93;;
13250;SDS011;6692;50.710;7.180;2023-11-21T06:38:37;16.87;;;11.63;;
13250;SDS011;6692;50.710;7.180;2023-11-21T06:40:37;18.50;;;12.67;;
13250;SDS011;6692;50.710;7.180;2023-11-21T06:42:39;18.70;;;13.83;;
13250;SDS011;6692;50.710;7.180;2023-11-21T06:44:39;21.97;;;15.37;;
13250;SDS011;6692;50.710;7.180;2023-11-21T06:46:40;20.93;;;14.93;;
13250;SDS011;6692;50.710;7.180;2023-11-21T06:48:42;19.43;;;13.80;;
13250;SDS011;6692;50.710;7.180;2023-11-21T06:50:43;18.10;;;13.97;;
13250;SDS011;6692;50.710;7.180;2023-11-21T06:52:44;20.97;;;14.47;;
13250;SDS011;6692;50.710;7.180;2023-11-21T06:54:44;19.77;;;13.97;;
13250;SDS011;6692;50.710;7.180;2023-11-21T06:56:46;16.03;;;12.07;;
13250;SDS011;6692;50.710;7.180;2023-11-21T06:58:47;16.50;;;12.30;;
13250;SDS011;6692;50.710;7.180;2023-11-21T07:00:47;15.20;;;11.57;;
13250;SDS011;6692;50.710;7.180;2023-11-21T07:02:48;16.87;;;11.93;;
13250;SDS011;6692;50.710;7.180;2023-11-21T07:04:49;24.47;;;15.63;;
13250;SDS011;6692;50.710;7.180;2023-11-21T07:06:50;21.73;;;14.70;;
13250;SDS011;6692;50.710;7.180;2023-11-21T07:08:51;18.93;;;14.40;;
13250;SDS011;6692;50.710;7.180;2023-11-21T07:10:51;18.87;;;13.60;;
13250;SDS011;6692;50.710;7.180;2023-11-21T07:12:52;19.40;;;14.13;;
13250;SDS011;6692;50.710;7.180;2023-11-21T07:14:53;19.63;;;13.83;;
13250;SDS011;6692;50.710;7.180;2023-11-21T07:16:54;14.33;;;11.03;;
13250;SDS011;6692;50.710;7.180;2023-11-21T07:18:55;16.50;;;11.90;;
13250;SDS011;6692;50.710;7.180;2023-11-21T07:20:56;20.90;;;14.57;;
13250;SDS011;6692;50.710;7.180;2023-11-21T07:22:57;19.83;;;13.43;;
13250;SDS011;6692;50.710;7.180;2023-11-21T07:24:58;23.07;;;15.47;;
13250;SDS011;6692;50.710;7.180;2023-11-21T07:26:59;25.93;;;17.20;;
13250;SDS011;6692;50.710;7.180;2023-11-21T07:29:00;21.53;;;15.03;;
13250;SDS011;6692;50.710;7.180;2023-11-21T07:31:01;25.17;;;16.27;;
13250;SDS011;6692;50.710;7.180;2023-11-21T07:33:02;23.07;;;14.20;;
13250;SDS011;6692;50.710;7.180;2023-11-21T07:35:03;22.17;;;15.37;;
13250;SDS011;6692;50.710;7.180;2023-11-21T07:37:05;24.53;;;16.73;;
13250;SDS011;6692;50.710;7.180;2023-11-21T07:39:06;22.47;;;15.20;;
13250;SDS011;6692;50.710;7.180;2023-11-21T07:41:07;25.47;;;17.13;;
13250;SDS011;6692;50.710;7.180;2023-11-21T07:43:08;22.47;;;14.70;;
13250;SDS011;6692;50.710;7.180;2023-11-21T07:45:09;20.93;;;14.77;;
13250;SDS011;6692;50.710;7.180;2023-11-21T07:47:10;21.10;;;15.03;;
13250;SDS011;6692;50.710;7.180;2023-11-21T07:49:11;17.73;;;13.07;;
13250;SDS011;6692;50.710;7.180;2023-11-21T07:51:12;21.70;;;14.60;;
13250;SDS011;6692;50.710;7.180;2023-11-21T07:53:12;19.17;;;14.33;;
13250;SDS011;6692;50.710;7.180;2023-11-21T07:55:13;29.60;;;18.07;;
13250;SDS011;6692;50.710;7.180;2023-11-21T07:57:14;26.87;;;17.87;;
13250;SDS011;6692;50.710;7.180;2023-11-21T07:59:15;24.40;;;15.40;;
13250;SDS011;6692;50.710;7.180;2023-11-21T08:01:16;22.83;;;15.33;;
13250;SDS011;6692;50.710;7.180;2023-11-21T08:03:17;23.77;;;15.57;;
13250;SDS011;6692;50.710;7.180;2023-11-21T08:05:17;25.40;;;15.70;;
13250;SDS011;6692;50.710;7.180;2023-11-21T08:07:18;21.80;;;15.20;;
13250;SDS011;6692;50.710;7.180;2023-11-21T08:09:19;22.40;;;14.67;;
13250;SDS011;6692;50.710;7.180;2023-11-21T08:11:20;24.43;;;16.03;;
13250;SDS011;6692;50.710;7.180;2023-11-21T08:13:22;22.67;;;14.70;;
13250;SDS011;6692;50.710;7.180;2023-11-21T08:15:23;22.67;;;14.77;;
13250;SDS011;6692;50.710;7.180;2023-11-21T08:17:25;20.53;;;14.20;;
13250;SDS011;6692;50.710;7.180;2023-11-21T08:19:26;18.83;;;13.23;;
13250;SDS011;6692;50.710;7.180;2023-11-21T08:21:27;17.57;;;12.77;;
13250;SDS011;6692;50.710;7.180;2023-11-21T08:23:28;16.93;;;12.00;;
13250;SDS011;6692;50.710;7.180;2023-11-21T08:25:29;16.00;;;11.43;;
13250;SDS011;6692;50.710;7.180;2023-11-21T08:27:30;19.17;;;12.80;;
13250;SDS011;6692;50.710;7.180;2023-11-21T08:29:31;25.73;;;15.10;;
13250;SDS011;6692;50.710;7.180;2023-11-21T08:31:32;21.57;;;13.90;;
13250;SDS011;6692;50.710;7.180;2023-11-21T08:33:33;23.13;;;15.07;;
13250;SDS011;6692;50.710;7.180;2023-11-21T08:35:34;23.77;;;15.07;;
13250;SDS011;6692;50.710;7.180;2023-11-21T08:37:35;18.57;;;13.03;;
13250;SDS011;6692;50.710;7.180;2023-11-21T08:39:37;20.07;;;13.83;;
13250;SDS011;6692;50.710;7.180;2023-11-21T08:41:37;18.53;;;13.70;;
13250;SDS011;6692;50.710;7.180;2023-11-21T08:43:38;17.23;;;12.23;;
13250;SDS011;6692;50.710;7.180;2023-11-21T08:45:39;18.30;;;12.67;;
13250;SDS011;6692;50.710;7.180;2023-11-21T08:47:40;20.27;;;14.20;;
13250;SDS011;6692;50.710;7.180;2023-11-21T08:49:41;21.97;;;15.50;;
13250;SDS011;6692;50.710;7.180;2023-11-21T08:51:43;22.50;;;15.83;;
13250;SDS011;6692;50.710;7.180;2023-11-21T08:53:43;22.83;;;14.80;;
13250;SDS011;6692;50.710;7.180;2023-11-21T08:55:44;27.00;;;17.23;;
13250;SDS011;6692;50.710;7.180;2023-11-21T08:57:45;21.70;;;15.40;;
13250;SDS011;6692;50.710;7.180;2023-11-21T08:59:47;19.37;;;13.63;;
13250;SDS011;6692;50.710;7.180;2023-11-21T09:01:48;19.20;;;13.70;;
13250;SDS011;6692;50.710;7.180;2023-11-21T09:03:49;23.00;;;14.23;;
13250;SDS011;6692;50.710;7.180;2023-11-21T09:05:50;21.23;;;14.63;;
13250;SDS011;6692;50.710;7.180;2023-11-21T09:07:50;24.13;;;14.87;;
13250;SDS011;6692;50.710;7.180;2023-11-21T09:09:52;22.47;;;14.50;;
13250;SDS011;6692;50.710;7.180;2023-11-21T09:11:53;26.77;;;16.80;;
13250;SDS011;6692;50.710;7.180;2023-11-21T09:13:54;29.87;;;18.90;;
13250;SDS011;6692;50.710;7.180;2023-11-21T09:15:55;30.47;;;19.20;;
13250;SDS011;6692;50.710;7.180;2023-11-21T09:17:56;27.60;;;17.77;;
13250;SDS011;6692;50.710;7.180;2023-11-21T09:19:57;24.23;;;17.07;;
13250;SDS011;6692;50.710;7.180;2023-11-21T09:21:58;28.40;;;18.30;;
13250;SDS011;6692;50.710;7.180;2023-11-21T09:23:58;30.67;;;17.83;;
13250;SDS011;6692;50.710;7.180;2023-11-21T09:25:59;28.83;;;19.03;;
13250;SDS011;6692;50.710;7.180;2023-11-21T09:28:00;22.73;;;15.50;;
13250;SDS011;6692;50.710;7.180;2023-11-21T09:30:01;25.70;;;17.13;;
13250;SDS011;6692;50.710;7.180;2023-11-21T09:32:02;30.40;;;19.03;;
13250;SDS011;6692;50.710;7.180;2023-11-21T09:34:03;27.03;;;18.13;;
13250;SDS011;6692;50.710;7.180;2023-11-21T09:36:04;26.80;;;16.47;;
13250;SDS011;6692;50.710;7.180;2023-11-21T09:38:06;30.50;;;17.77;;
13250;SDS011;6692;50.710;7.180;2023-11-21T09:40:09;29.47;;;17.13;;
13250;SDS011;6692;50.710;7.180;2023-11-21T09:42:10;28.70;;;17.07;;
13250;SDS011;6692;50.710;7.180;2023-11-21T09:44:11;26.13;;;15.77;;
13250;SDS011;6692;50.710;7.180;2023-11-21T09:46:11;24.13;;;15.43;;
13250;SDS011;6692;50.710;7.180;2023-11-21T09:48:12;26.23;;;15.73;;
13250;SDS011;6692;50.710;7.180;2023-11-21T09:50:14;25.67;;;16.40;;
13250;SDS011;6692;50.710;7.180;2023-11-21T09:52:17;26.87;;;17.53;;
13250;SDS011;6692;50.710;7.180;2023-11-21T09:54:15;28.60;;;18.63;;
13250;SDS011;6692;50.710;7.180;2023-11-21T09:56:16;28.37;;;16.47;;
13250;SDS011;6692;50.710;7.180;2023-11-21T09:58:18;27.73;;;18.20;;
13250;SDS011;6692;50.710;7.180;2023-11-21T10:00:20;25.67;;;16.40;;
13250;SDS011;6692;50.710;7.180;2023-11-21T10:02:22;24.90;;;15.93;;
13250;SDS011;6692;50.710;7.180;2023-11-21T10:04:21;30.90;;;18.53;;
13250;SDS011;6692;50.710;7.180;2023-11-21T10:06:22;29.20;;;17.33;;
13250;SDS011;6692;50.710;7.180;2023-11-21T10:08:23;26.67;;;17.13;;
13250;SDS011;6692;50.710;7.180;2023-11-21T10:10:24;28.80;;;18.23;;
13250;SDS011;6692;50.710;7.180;2023-11-21T10:12:25;32.57;;;20.57;;
13250;SDS011;6692;50.710;7.180;2023-11-21T10:14:26;36.03;;;20.77;;
13250;SDS011;6692;50.710;7.180;2023-11-21T10:16:27;35.73;;;21.93;;
13250;SDS011;6692;50.710;7.180;2023-11-21T10:18:28;34.00;;;21.00;;
13250;SDS011;6692;50.710;7.180;2023-11-21T10:20:30;36.00;;;21.57;;
13250;SDS011;6692;50.710;7.180;2023-11-21T10:22:30;30.83;;;20.27;;
13250;SDS011;6692;50.710;7.180;2023-11-21T10:24:31;34.17;;;21.37;;
13250;SDS011;6692;50.710;7.180;2023-11-21T10:26:32;28.70;;;18.70;;
13250;SDS011;6692;50.710;7.180;2023-11-21T10:28:35;27.83;;;18.80;;
13250;SDS011;6692;50.710;7.180;2023-11-21T10:30:36;28.87;;;19.00;;
13250;SDS011;6692;50.710;7.180;2023-11-21T10:32:36;31.03;;;19.23;;
13250;SDS011;6692;50.710;7.180;2023-11-21T10:34:37;24.07;;;17.13;;
13250;SDS011;6692;50.710;7.180;2023-11-21T10:36:38;24.87;;;17.50;;
13250;SDS011;6692;50.710;7.180;2023-11-21T10:38:42;24.43;;;16.93;;
13250;SDS011;6692;50.710;7.180;2023-11-21T10:40:43;25.43;;;17.13;;
13250;SDS011;6692;50.710;7.180;2023-11-21T10:42:43;22.23;;;15.10;;
13250;SDS011;6692;50.710;7.180;2023-11-21T10:44:45;23.33;;;14.73;;
13250;SDS011;6692;50.710;7.180;2023-11-21T10:46:45;21.10;;;15.53;;
13250;SDS011;6692;50.710;7.180;2023-11-21T10:48:46;28.13;;;17.73;;
13250;SDS011;6692;50.710;7.180;2023-11-21T10:50:47;26.23;;;17.27;;
13250;SDS011;6692;50.710;7.180;2023-11-21T10:52:48;25.90;;;18.37;;
13250;SDS011;6692;50.710;7.180;2023-11-21T10:54:49;29.90;;;19.13;;
13250;SDS011;6692;50.710;7.180;2023-11-21T10:56:50;27.17;;;18.33;;
13250;SDS011;6692;50.710;7.180;2023-11-21T10:58:50;28.07;;;18.67;;
13250;SDS011;6692;50.710;7.180;2023-11-21T11:00:52;23.37;;;16.40;;
13250;SDS011;6692;50.710;7.180;2023-11-21T11:02:53;21.20;;;15.33;;
13250;SDS011;6692;50.710;7.180;2023-11-21T11:04:54;25.73;;;17.30;;
13250;SDS011;6692;50.710;7.180;2023-11-21T11:06:57;23.53;;;16.30;;
13250;SDS011;6692;50.710;7.180;2023-11-21T11:08:58;27.10;;;17.93;;
13250;SDS011;6692;50.710;7.180;2023-11-21T11:10:59;30.23;;;18.70;;
13250;SDS011;6692;50.710;7.180;2023-11-21T11:12:59;27.67;;;18.37;;
13250;SDS011;6692;50.710;7.180;2023-11-21T11:15:01;32.53;;;19.47;;
13250;SDS011;6692;50.710;7.180;2023-11-21T11:17:01;27.53;;;18.60;;
13250;SDS011;6692;50.710;7.180;2023-11-21T11:19:02;23.17;;;17.17;;
13250;SDS011;6692;50.710;7.180;2023-11-21T11:21:09;22.83;;;16.30;;
13250;SDS011;6692;50.710;7.180;2023-11-21T11:23:21;25.17;;;18.37;;
13250;SDS011;6692;50.710;7.180;2023-11-21T11:25:23;29.90;;;17.83;;
13250;SDS011;6692;50.710;7.180;2023-11-21T11:27:30;29.83;;;20.93;;
13250;SDS011;6692;50.710;7.180;2023-11-21T11:29:33;28.07;;;18.27;;
13250;SDS011;6692;50.710;7.180;2023-11-21T11:32:04;33.30;;;21.40;;
13250;SDS011;6692;50.710;7.180;2023-11-21T11:33:59;28.67;;;19.63;;
13250;SDS011;6692;50.710;7.180;2023-11-21T11:36:02;26.73;;;18.93;;
13250;SDS011;6692;50.710;7.180;2023-11-21T11:38:01;27.93;;;19.50;;
13250;SDS011;6692;50.710;7.180;2023-11-21T11:40:03;32.53;;;20.37;;
13250;SDS011;6692;50.710;7.180;2023-11-21T11:42:05;32.43;;;19.60;;
13250;SDS011;6692;50.710;7.180;2023-11-21T11:44:08;27.83;;;18.27;;
13250;SDS011;6692;50.710;7.180;2023-11-21T11:46:05;27.87;;;19.00;;
13250;SDS011;6692;50.710;7.180;2023-11-21T11:48:06;27.83;;;18.57;;
13250;SDS011;6692;50.710;7.180;2023-11-21T11:50:07;28.33;;;18.77;;
13250;SDS011;6692;50.710;7.180;2023-11-21T11:54:34;33.03;;;20.90;;
13250;SDS011;6692;50.710;7.180;2023-11-21T11:56:32;37.97;;;23.57;;
13250;SDS011;6692;50.710;7.180;2023-11-21T11:58:37;37.73;;;23.00;;
13250;SDS011;6692;50.710;7.180;2023-11-21T12:00:33;44.53;;;25.07;;
13250;SDS011;6692;50.710;7.180;2023-11-21T12:02:35;35.77;;;23.67;;
13250;SDS011;6692;50.710;7.180;2023-11-21T12:04:35;37.17;;;23.67;;
13250;SDS011;6692;50.710;7.180;2023-11-21T12:06:36;32.93;;;21.47;;
13250;SDS011;6692;50.710;7.180;2023-11-21T12:08:37;36.17;;;23.60;;